Camden, Ohio
Current Conditions -  °F | °C
As of 5:35 PM on Sunday 23 Nov 2014 (Local Time) from KMWO Reporting Station
Drizzle Drizzle  
Wind Chill: 57°   Ceiling: 5000
Heat Index: 57°   Visibility: 10mi
Dew Point: 46°   Wind: 7mph
Humidity: 67%   Direction: 130°SE
Pressure: 29.55"   Gusts: NA
Location:  39.63°N, 84.65°W
Report Text: KMWO 232235Z AUTO 13006KT 10SM DZ SCT036 SCT042 OVC050 14/08 A2955 RMK AO2 T01380078
Loading
Personal Weather Stations






























Interactive Weather Map New forecast layout! Learn more

10-Day Weather Forecast

Advertisements
Track Severe Weather on mobile